Time;durP1;ratioP1;P1;durP2;ratioP2;P2;SDS_P1;SDS_P2;PMS_P1;PMS_P2;Temp;Humidity;BMP_temperature;BMP_pressure;BME280_temperature;BME280_humidity;BME280_pressure;Samples;Min_cycle;Max_cycle;Signal;HPM_P1;HPM_P2
2021/11/18 00:00:57;;;;;;;2.00;1.80;;;;;;;6.04;100.00;101459.13;5030723;28;20191;-77
2021/11/18 00:03:24;;;;;;;6.00;2.17;;;;;;;6.00;100.00;101455.31;5031080;28;20207;-77
2021/11/18 00:05:50;;;;;;;4.70;3.43;;;;;;;5.97;100.00;101461.25;5030543;28;20187;-77
2021/11/18 00:08:16;;;;;;;3.00;1.40;;;;;;;5.94;100.00;101464.47;5030542;28;20207;-77
2021/11/18 00:10:51;;;;;;;1.90;1.63;;;;;;;5.93;100.00;101463.66;5030672;28;20204;-78
2021/11/18 00:13:19;;;;;;;1.70;1.47;;;;;;;5.93;100.00;101450.09;5030637;28;20171;-78
2021/11/18 00:15:44;;;;;;;6.00;3.97;;;;;;;5.92;100.00;101450.31;5030356;28;20575;-78
2021/11/18 00:18:17;;;;;;;8.20;2.87;;;;;;;5.89;100.00;101464.38;5031707;28;20180;-78
2021/11/18 00:20:46;;;;;;;3.60;2.43;;;;;;;5.84;100.00;101465.16;5033299;28;20200;-78
2021/11/18 00:23:12;;;;;;;3.10;2.87;;;;;;;5.82;100.00;101469.19;5034511;28;20203;-78
2021/11/18 00:25:38;;;;;;;2.80;2.47;;;;;;;5.80;100.00;101474.06;5034494;28;20586;-78
2021/11/18 00:28:04;;;;;;;6.63;4.90;;;;;;;5.83;100.00;101474.34;5034370;28;20675;-75
2021/11/18 00:30:29;;;;;;;6.57;4.50;;;;;;;5.84;100.00;101473.28;5034380;28;20176;-78
2021/11/18 00:32:55;;;;;;;5.33;2.27;;;;;;;5.85;100.00;101483.06;5034401;28;20168;-78
2021/11/18 00:35:24;;;;;;;2.03;1.57;;;;;;;5.84;100.00;101486.03;5032873;28;20632;-77
2021/11/18 00:37:50;;;;;;;3.10;2.03;;;;;;;5.82;100.00;101486.28;5034357;28;20180;-77
2021/11/18 00:40:19;;;;;;;4.97;4.23;;;;;;;5.84;100.00;101481.41;5034258;28;20259;-73
2021/11/18 00:42:44;;;;;;;5.63;2.63;;;;;;;5.84;100.00;101494.97;5034127;28;20195;-77
2021/11/18 00:45:11;;;;;;;5.13;4.73;;;;;;;5.85;100.00;101493.91;5033735;28;20180;-79
2021/11/18 00:47:37;;;;;;;13.13;5.20;;;;;;;5.87;100.00;101493.63;5034218;28;20290;-75
2021/11/18 00:50:04;;;;;;;3.57;3.30;;;;;;;5.84;100.00;101492.25;5034078;28;20669;-76
2021/11/18 00:52:29;;;;;;;7.83;3.43;;;;;;;5.85;100.00;101499.31;5033955;28;20172;-75
2021/11/18 00:54:55;;;;;;;7.17;1.87;;;;;;;5.81;100.00;101502.81;5033835;28;20198;-78
2021/11/18 00:57:20;;;;;;;9.60;6.43;;;;;;;5.79;100.00;101505.78;5033969;28;20168;-76
2021/11/18 00:59:46;;;;;;;14.27;5.60;;;;;;;5.87;100.00;101507.19;5033723;28;20174;-76
2021/11/18 01:02:13;;;;;;;3.10;2.63;;;;;;;5.88;100.00;101512.38;5033909;28;20204;-74
2021/11/18 01:04:38;;;;;;;3.80;3.47;;;;;;;5.89;100.00;101497.72;5033735;28;20203;-76
2021/11/18 01:07:04;;;;;;;7.17;3.90;;;;;;;5.96;100.00;101503.00;5033719;28;20592;-77
2021/11/18 01:09:30;;;;;;;8.53;4.50;;;;;;;6.02;100.00;101515.53;5033692;28;20172;-74
2021/11/18 01:11:55;;;;;;;4.80;4.33;;;;;;;6.04;100.00;101513.38;5033662;28;20581;-75
2021/11/18 01:14:21;;;;;;;1.23;0.67;;;;;;;6.06;100.00;101519.38;5033477;28;20227;-77
2021/11/18 01:16:48;;;;;;;10.10;4.47;;;;;;;6.07;100.00;101517.47;5033548;28;20627;-78
2021/11/18 01:19:14;;;;;;;5.63;3.50;;;;;;;6.10;100.00;101528.66;5033535;28;20183;-74
2021/11/18 01:21:42;;;;;;;2.80;2.27;;;;;;;6.14;100.00;101523.53;5033532;28;20172;-78
2021/11/18 01:24:09;;;;;;;2.87;2.77;;;;;;;6.17;100.00;101544.72;5033328;28;20168;-74
2021/11/18 01:26:34;;;;;;;1.60;1.10;;;;;;;6.12;100.00;101529.22;5033547;28;20172;-72
2021/11/18 01:29:01;;;;;;;2.00;1.80;;;;;;;6.10;100.00;101522.41;5032707;28;20674;-72
2021/11/18 01:31:27;;;;;;;2.37;2.07;;;;;;;6.09;100.00;101540.59;5033320;28;20176;-74
2021/11/18 01:33:53;;;;;;;1.33;1.23;;;;;;;6.08;100.00;101543.56;5033158;28;20203;-75
2021/11/18 01:36:18;;;;;;;3.00;2.73;;;;;;;6.09;100.00;101535.16;5033166;28;20211;-76
2021/11/18 01:38:44;;;;;;;3.13;2.87;;;;;;;6.10;100.00;101535.97;5033161;28;20184;-77
2021/11/18 01:41:17;;;;;;;10.13;5.13;;;;;;;6.12;100.00;101541.97;5033175;28;20208;-76
2021/11/18 01:43:47;;;;;;;5.03;4.60;;;;;;;6.14;100.00;101537.94;5027309;28;20263;-78
2021/11/18 01:46:17;;;;;;;4.47;3.70;;;;;;;6.17;100.00;101540.13;5013362;28;20177;-78
2021/11/18 01:48:46;;;;;;;16.60;1.17;;;;;;;6.18;100.00;101546.38;5013193;28;20291;-78
2021/11/18 01:51:12;;;;;;;23.00;4.27;;;;;;;6.22;100.00;101550.19;5013294;28;20176;-75
2021/11/18 01:53:42;;;;;;;2.20;2.07;;;;;;;6.23;100.00;101538.31;5012906;28;20230;-78
2021/11/18 01:56:11;;;;;;;2.63;2.23;;;;;;;6.20;100.00;101538.78;5013413;28;20219;-78
2021/11/18 01:58:39;;;;;;;8.93;3.23;;;;;;;6.16;100.00;101540.38;5013208;28;20215;-75
2021/11/18 02:01:06;;;;;;;5.97;4.80;;;;;;;6.19;100.00;101545.28;5013077;28;20229;-78
2021/11/18 02:03:32;;;;;;;3.83;2.83;;;;;;;6.15;100.00;101538.75;5011651;28;20539;-78
2021/11/18 02:06:02;;;;;;;24.13;2.33;;;;;;;6.17;100.00;101542.00;5012680;28;20185;-76
2021/11/18 02:08:27;;;;;;;11.20;6.23;;;;;;;6.13;100.00;101549.03;5012716;28;20282;-73
2021/11/18 02:10:57;;;;;;;6.00;4.60;;;;;;;6.12;100.00;101540.06;5012799;28;20648;-74
2021/11/18 02:13:23;;;;;;;5.67;3.50;;;;;;;6.12;100.00;101539.25;5012734;28;20169;-74
2021/11/18 02:15:52;;;;;;;8.40;4.97;;;;;;;6.10;100.00;101541.41;5012690;28;20235;-74
2021/11/18 02:18:24;;;;;;;0.70;0.70;;;;;;;6.12;100.00;101542.78;5012599;28;20169;-73
2021/11/18 02:20:53;;;;;;;1.60;1.50;;;;;;;6.11;100.00;101535.72;5012547;28;20173;-77
2021/11/18 02:23:26;;;;;;;2.13;1.60;;;;;;;6.10;100.00;101533.28;5012490;28;20208;-76
2021/11/18 02:25:53;;;;;;;6.20;3.77;;;;;;;6.10;100.00;101538.69;5013200;28;20530;-77
2021/11/18 02:28:21;;;;;;;6.73;4.17;;;;;;;6.09;100.00;101537.06;5012426;28;20212;-77
2021/11/18 02:30:50;;;;;;;2.53;2.43;;;;;;;6.13;100.00;101540.91;5011189;28;20519;-77
2021/11/18 02:33:17;;;;;;;7.40;3.13;;;;;;;6.14;100.00;101531.69;5012312;28;20226;-74
2021/11/18 02:35:44;;;;;;;9.97;4.03;;;;;;;6.15;100.00;101544.16;5012226;28;20180;-74
2021/11/18 02:38:09;;;;;;;5.40;4.13;;;;;;;6.20;100.00;101538.78;5011090;28;20654;-74
2021/11/18 02:40:36;;;;;;;19.63;3.17;;;;;;;6.22;100.00;101551.06;5011492;28;20165;-75
2021/11/18 02:43:02;;;;;;;2.40;2.20;;;;;;;6.23;100.00;101551.88;5010932;28;20577;-77
2021/11/18 02:45:30;;;;;;;3.10;2.13;;;;;;;6.23;100.00;101557.28;5011677;28;20188;-75
2021/11/18 02:47:57;;;;;;;7.07;2.93;;;;;;;6.18;100.00;101541.75;5012005;28;20204;-73
2021/11/18 02:50:28;;;;;;;9.37;4.63;;;;;;;6.19;100.00;101545.28;5012138;28;20200;-72
2021/11/18 02:52:53;;;;;;;2.87;2.27;;;;;;;6.15;100.00;101547.69;5012106;28;20226;-72
2021/11/18 02:55:26;;;;;;;3.30;2.47;;;;;;;6.14;100.00;101554.19;5011859;28;20651;-72
2021/11/18 02:57:51;;;;;;;3.27;3.00;;;;;;;6.14;100.00;101565.06;5011912;28;20177;-73
2021/11/18 03:00:22;;;;;;;3.13;2.70;;;;;;;6.13;100.00;101565.31;5012068;28;20263;-75
2021/11/18 03:02:48;;;;;;;1.03;1.03;;;;;;;6.12;100.00;101580.78;5011932;28;20196;-75
2021/11/18 03:05:18;;;;;;;24.07;6.73;;;;;;;6.13;100.00;101587.03;5011708;28;20682;-73
2021/11/18 03:07:43;;;;;;;24.30;2.50;;;;;;;6.15;100.00;101582.16;5011658;28;20196;-74
2021/11/18 03:10:10;;;;;;;4.70;4.30;;;;;;;6.12;100.00;101578.06;5011734;28;20252;-74
2021/11/18 03:12:36;;;;;;;1.07;0.97;;;;;;;6.13;100.00;101565.31;5011944;28;20183;-75
2021/11/18 03:15:02;;;;;;;2.93;2.73;;;;;;;6.12;100.00;101580.78;5011590;28;20251;-78
2021/11/18 03:17:28;;;;;;;3.07;2.87;;;;;;;6.13;100.00;101565.31;5011575;28;20180;-76
2021/11/18 03:19:53;;;;;;;5.93;2.23;;;;;;;6.11;100.00;101562.03;5010239;28;20226;-74
2021/11/18 03:22:18;;;;;;;25.40;2.37;;;;;;;6.15;100.00;101557.72;5011568;28;20511;-74
2021/11/18 03:24:44;;;;;;;7.17;3.93;;;;;;;6.17;100.00;101555.59;5011408;28;20177;-74
2021/11/18 03:27:10;;;;;;;5.73;3.30;;;;;;;6.17;100.00;101567.25;5011403;28;20624;-73
2021/11/18 03:29:36;;;;;;;7.97;4.13;;;;;;;6.18;100.00;101560.75;5011445;28;20179;-76
2021/11/18 03:32:02;;;;;;;6.10;4.83;;;;;;;6.20;100.00;101561.31;5022061;28;20306;-73
2021/11/18 03:34:30;;;;;;;5.60;4.77;;;;;;;6.22;100.00;101550.19;5031012;28;20263;-72
2021/11/18 03:36:56;;;;;;;2.47;2.33;;;;;;;6.25;100.00;101547.81;5030969;28;20186;-74
2021/11/18 03:39:22;;;;;;;3.47;3.07;;;;;;;6.30;100.00;101557.91;5030892;28;20176;-74
2021/11/18 03:41:53;;;;;;;5.73;3.80;;;;;;;6.32;100.00;101558.47;5030934;28;20199;-76
2021/11/18 03:44:20;;;;;;;6.23;4.23;;;;;;;6.36;100.00;101556.88;5030696;28;20187;-77
2021/11/18 03:47:08;;;;;;;2.37;2.27;;;;;;;6.38;100.00;101560.16;5030907;28;20190;-75
2021/11/18 03:49:34;;;;;;;5.20;4.80;;;;;;;6.38;100.00;101560.16;5030814;28;20267;-75
2021/11/18 03:52:01;;;;;;;12.67;3.50;;;;;;;6.40;100.00;101563.44;5029443;28;20271;-77
2021/11/18 03:54:31;;;;;;;2.67;1.77;;;;;;;6.42;100.00;101564.00;5030680;28;20644;-75
2021/11/18 03:56:56;;;;;;;5.33;3.90;;;;;;;6.46;100.00;101559.69;5030811;28;20230;-75
2021/11/18 03:59:26;;;;;;;8.17;3.20;;;;;;;6.47;100.00;101563.22;5030750;28;20183;-78
2021/11/18 04:01:53;;;;;;;3.07;2.67;;;;;;;6.47;100.00;101565.94;5029342;28;20184;-79
2021/11/18 04:04:25;;;;;;;2.20;2.00;;;;;;;6.46;100.00;101569.72;5029255;28;20182;-77
2021/11/18 04:06:51;;;;;;;10.77;5.03;;;;;;;6.45;100.00;101576.25;5030591;28;20180;-76
2021/11/18 04:09:16;;;;;;;3.53;3.13;;;;;;;6.45;100.00;101577.06;5030696;28;20705;-77
2021/11/18 04:11:44;;;;;;;8.27;4.07;;;;;;;6.48;100.00;101576.53;5030674;28;20203;-78
2021/11/18 04:14:11;;;;;;;4.50;4.10;;;;;;;6.48;100.00;101571.09;5030447;28;20176;-76
2021/11/18 04:16:38;;;;;;;5.00;3.77;;;;;;;6.47;100.00;101560.50;5030607;28;20255;-77
2021/11/18 04:19:03;;;;;;;7.23;4.70;;;;;;;6.48;100.00;101571.09;5030719;28;20172;-74
2021/11/18 04:21:31;;;;;;;4.70;3.73;;;;;;;6.49;100.00;101574.63;5030582;28;20635;-74
2021/11/18 04:23:58;;;;;;;4.23;3.33;;;;;;;6.49;100.00;101571.94;5030472;28;20203;-73
2021/11/18 04:26:25;;;;;;;2.57;2.10;;;;;;;6.50;100.00;101571.66;5030575;28;20180;-75
2021/11/18 04:28:50;;;;;;;10.83;5.13;;;;;;;6.49;100.00;101570.03;5030442;28;20208;-78
2021/11/18 04:31:18;;;;;;;6.20;5.10;;;;;;;6.52;100.00;101564.13;5030263;28;20255;-73
2021/11/18 04:33:44;;;;;;;5.80;4.23;;;;;;;6.54;100.00;101569.28;5028804;28;20686;-74
2021/11/18 04:36:12;;;;;;;3.80;2.73;;;;;;;6.55;100.00;101560.06;5030470;28;20200;-76
2021/11/18 04:38:38;;;;;;;10.70;5.10;;;;;;;6.56;100.00;101569.84;5030544;28;20191;-72
2021/11/18 04:41:05;;;;;;;7.47;4.43;;;;;;;6.54;100.00;101575.53;5032191;28;20172;-71
2021/11/18 04:43:31;;;;;;;5.43;5.03;;;;;;;6.55;100.00;101569.03;5032177;28;20561;-72
2021/11/18 04:45:56;;;;;;;2.80;2.63;;;;;;;6.56;100.00;101565.22;5031085;28;20259;-71
2021/11/18 04:48:22;;;;;;;8.03;3.83;;;;;;;6.56;100.00;101576.09;5030253;28;20299;-71
2021/11/18 04:50:49;;;;;;;15.20;6.17;;;;;;;6.56;100.00;101578.81;5030272;28;20180;-72
2021/11/18 04:53:15;;;;;;;12.30;7.10;;;;;;;6.56;100.00;101597.00;5030358;28;20199;-72
2021/11/18 04:55:43;;;;;;;2.63;2.00;;;;;;;6.53;100.00;101583.94;5030060;28;20537;-72
2021/11/18 04:58:08;;;;;;;14.30;5.67;;;;;;;6.54;100.00;101580.97;5030274;28;20172;-72
2021/11/18 05:00:45;;;;;;;2.90;2.67;;;;;;;6.52;100.00;101582.28;5030527;28;20183;-72
2021/11/18 05:03:11;;;;;;;3.83;2.77;;;;;;;6.53;100.00;101592.91;5031006;28;20172;-72
2021/11/18 05:05:37;;;;;;;13.77;6.47;;;;;;;6.56;100.00;101581.53;5033549;28;20179;-72
2021/11/18 05:08:02;;;;;;;2.50;2.30;;;;;;;6.55;100.00;101582.59;5033653;28;20253;-72
2021/11/18 05:10:28;;;;;;;3.60;3.23;;;;;;;6.53;100.00;101586.66;5033672;28;20245;-72
2021/11/18 05:12:54;;;;;;;10.30;4.23;;;;;;;6.54;100.00;101575.53;5032799;28;20522;-72
2021/11/18 05:15:22;;;;;;;10.27;4.50;;;;;;;6.55;100.00;101588.03;5025528;28;20176;-72
2021/11/18 05:17:48;;;;;;;4.93;4.60;;;;;;;6.57;100.00;101590.47;5012500;28;20225;-72
2021/11/18 05:20:15;;;;;;;3.97;3.67;;;;;;;6.57;100.00;101585.88;5013707;28;20263;-73
2021/11/18 05:22:41;;;;;;;6.60;5.47;;;;;;;6.58;100.00;101600.25;5013738;28;20643;-72
2021/11/18 05:25:08;;;;;;;7.37;6.63;;;;;;;6.60;100.00;101608.97;5013534;28;20501;-72
2021/11/18 05:27:33;;;;;;;3.97;3.77;;;;;;;6.60;100.00;101616.28;5013684;28;20196;-72
2021/11/18 05:29:59;;;;;;;10.30;6.50;;;;;;;6.59;100.00;101609.22;5013913;28;20184;-72
2021/11/18 05:32:24;;;;;;;5.53;4.33;;;;;;;6.61;100.00;101602.47;5013605;28;20177;-72
2021/11/18 05:34:50;;;;;;;17.47;4.40;;;;;;;6.63;100.00;101608.44;5013380;28;20168;-72
2021/11/18 05:37:16;;;;;;;5.10;4.73;;;;;;;6.65;100.00;101606.28;5013457;28;20251;-75
2021/11/18 05:39:42;;;;;;;6.07;5.50;;;;;;;6.64;100.00;101614.69;5013489;28;20259;-72
2021/11/18 05:42:08;;;;;;;5.27;4.73;;;;;;;6.61;100.00;101612.50;5013365;28;20643;-72
2021/11/18 05:44:34;;;;;;;11.70;9.13;;;;;;;6.60;100.00;101598.09;5011875;28;20172;-72
2021/11/18 05:47:00;;;;;;;7.23;4.67;;;;;;;6.61;100.00;101616.03;5013276;28;20175;-72
2021/11/18 05:49:25;;;;;;;7.33;6.63;;;;;;;6.58;100.00;101608.41;5013079;28;20291;-72
2021/11/18 05:51:51;;;;;;;3.63;3.40;;;;;;;6.57;100.00;101604.06;5013215;28;20180;-73
2021/11/18 05:54:17;;;;;;;12.20;7.77;;;;;;;6.57;100.00;101618.44;5011740;28;20204;-72
2021/11/18 05:56:43;;;;;;;10.20;5.63;;;;;;;6.59;100.00;101618.19;5013114;28;20295;-72
2021/11/18 05:59:10;;;;;;;7.37;6.07;;;;;;;6.59;100.00;101615.47;5013124;28;20703;-72
2021/11/18 06:01:37;;;;;;;5.57;5.00;;;;;;;6.59;100.00;101612.75;5012841;28;20172;-72
2021/11/18 06:04:03;;;;;;;15.70;3.27;;;;;;;6.58;100.00;101622.00;5012658;28;20219;-72
2021/11/18 06:06:29;;;;;;;4.00;3.67;;;;;;;6.56;100.00;101624.13;5012936;28;20232;-72
2021/11/18 06:09:01;;;;;;;5.20;4.73;;;;;;;6.59;100.00;101622.81;5011445;28;20204;-74
2021/11/18 06:11:27;;;;;;;13.57;3.00;;;;;;;6.58;100.00;101624.69;5011631;28;20181;-72
2021/11/18 06:13:52;;;;;;;3.60;3.37;;;;;;;6.61;100.00;101629.63;5012387;28;20259;-71
2021/11/18 06:16:18;;;;;;;14.63;9.50;;;;;;;6.61;100.00;101636.94;5011769;28;20239;-73
2021/11/18 06:18:44;;;;;;;6.57;5.97;;;;;;;6.59;100.00;101631.78;5012543;28;20643;-74
2021/11/18 06:21:10;;;;;;;5.00;3.93;;;;;;;6.55;100.00;101636.91;5012670;28;20219;-76
2021/11/18 06:23:35;;;;;;;7.10;2.17;;;;;;;6.57;100.00;101650.22;5012448;28;20176;-73
2021/11/18 06:26:00;;;;;;;3.70;3.23;;;;;;;6.56;100.00;101646.69;5012503;28;20201;-72
2021/11/18 06:28:26;;;;;;;9.13;7.70;;;;;;;6.56;100.00;101635.81;5011162;28;20210;-72
2021/11/18 06:31:01;;;;;;;4.80;3.83;;;;;;;6.56;100.00;101630.38;5012480;28;20173;-72
2021/11/18 06:33:26;;;;;;;7.90;3.83;;;;;;;6.59;100.00;101633.66;5012353;28;20172;-72
2021/11/18 06:35:52;;;;;;;6.10;4.63;;;;;;;6.62;100.00;101649.44;5012243;28;20243;-72
2021/11/18 06:38:18;;;;;;;7.70;7.07;;;;;;;6.63;100.00;101646.47;5010964;28;20635;-74
2021/11/18 06:40:46;;;;;;;14.07;7.13;;;;;;;6.68;100.00;101646.53;5012361;28;20731;-74
2021/11/18 06:43:12;;;;;;;6.03;3.63;;;;;;;6.71;100.00;101632.44;5012060;28;20259;-75
2021/11/18 06:45:44;;;;;;;7.97;7.20;;;;;;;6.74;100.00;101645.50;5012105;28;20535;-77
2021/11/18 06:48:10;;;;;;;3.53;3.30;;;;;;;6.75;100.00;101641.72;5012005;28;20200;-75
2021/11/18 06:50:36;;;;;;;16.90;9.43;;;;;;;6.77;100.00;101634.13;5012233;28;20524;-74
2021/11/18 06:53:01;;;;;;;3.80;3.47;;;;;;;6.78;100.00;101632.22;5012150;28;20636;-73
2021/11/18 06:55:27;;;;;;;3.70;3.40;;;;;;;6.77;100.00;101615.09;5011960;28;20699;-74
2021/11/18 06:57:52;;;;;;;6.20;5.70;;;;;;;6.80;100.00;101640.97;5011806;28;20183;-77
2021/11/18 07:00:19;;;;;;;4.30;4.00;;;;;;;6.81;100.00;101631.72;5022110;28;20188;-75
2021/11/18 07:02:46;;;;;;;3.50;3.13;;;;;;;6.80;100.00;101635.53;5031536;28;20178;-75
2021/11/18 07:05:11;;;;;;;3.67;3.37;;;;;;;6.78;100.00;101635.75;5031248;28;20199;-78
2021/11/18 07:07:37;;;;;;;3.77;3.57;;;;;;;6.82;100.00;101634.19;5031458;28;20294;-77
2021/11/18 07:10:05;;;;;;;18.53;5.57;;;;;;;6.82;100.00;101644.25;5031430;28;20661;-74
2021/11/18 07:12:30;;;;;;;3.67;3.37;;;;;;;6.82;100.00;101650.50;5031291;28;20176;-74
2021/11/18 07:14:57;;;;;;;5.00;4.57;;;;;;;6.83;100.00;101657.56;5031314;28;20182;-72
2021/11/18 07:17:22;;;;;;;14.00;3.67;;;;;;;6.82;100.00;101653.19;5031293;28;20210;-71
2021/11/18 07:19:48;;;;;;;4.23;3.83;;;;;;;6.85;100.00;101660.84;5031306;28;20251;-71
2021/11/18 07:22:14;;;;;;;6.30;5.40;;;;;;;6.88;100.00;101664.09;5031203;28;20246;-71
2021/11/18 07:24:41;;;;;;;13.70;6.67;;;;;;;6.89;100.00;101665.75;5029811;28;20609;-72
2021/11/18 07:29:50;;;;;;;1.67;1.57;;;;;;;6.96;100.00;101680.78;5031095;28;20222;-70
2021/11/18 07:32:17;;;;;;;14.03;8.73;;;;;;;6.99;100.00;101669.38;5031121;28;20180;-74
2021/11/18 07:34:42;;;;;;;7.17;6.00;;;;;;;7.02;100.00;101679.75;5030912;28;20168;-72
2021/11/18 07:37:08;;;;;;;16.47;6.00;;;;;;;7.03;100.00;101675.94;5031018;28;20183;-72
2021/11/18 07:39:33;;;;;;;7.70;5.80;;;;;;;7.08;100.00;101686.03;5030944;28;20172;-72
2021/11/18 07:41:59;;;;;;;4.83;4.50;;;;;;;7.10;100.00;101678.47;5031037;28;20267;-72
2021/11/18 07:44:24;;;;;;;2.80;2.63;;;;;;;7.13;100.00;101692.34;5030625;28;20203;-73
2021/11/18 07:46:50;;;;;;;4.90;4.00;;;;;;;7.12;100.00;101690.72;5031260;28;20619;-72
2021/11/18 07:49:16;;;;;;;6.20;5.63;;;;;;;7.13;100.00;101703.22;5029622;28;20275;-72
2021/11/18 07:51:42;;;;;;;4.40;4.07;;;;;;;7.18;100.00;101709.78;5030801;28;20176;-71
2021/11/18 07:54:09;;;;;;;7.43;3.77;;;;;;;7.19;100.00;101706.78;5030886;28;20179;-74
2021/11/18 07:56:37;;;;;;;8.90;6.40;;;;;;;7.24;100.00;101708.75;5030845;28;20690;-82
2021/11/18 07:59:04;;;;;;;7.67;6.33;;;;;;;7.26;100.00;101714.75;5031049;28;20628;-81
2021/11/18 08:01:30;;;;;;;6.53;3.27;;;;;;;7.26;100.00;101710.13;5030765;28;20199;-73
2021/11/18 08:03:56;;;;;;;7.60;3.80;;;;;;;7.28;100.00;101720.75;5030747;28;20478;-83
2021/11/18 08:06:24;;;;;;;10.47;7.23;;;;;;;7.30;100.00;101715.88;5030834;28;20187;-83
2021/11/18 08:08:51;;;;;;;5.37;4.77;;;;;;;7.31;100.00;101718.31;5031208;28;20263;-72
2021/11/18 08:11:21;;;;;;;6.33;5.73;;;;;;;7.33;100.00;101709.91;5011064;28;20188;-72
2021/11/18 08:13:47;;;;;;;9.33;7.10;;;;;;;7.34;100.00;101717.00;5003690;28;20172;-72
2021/11/18 08:16:13;;;;;;;10.87;4.40;;;;;;;7.36;100.00;101731.13;5010965;28;20181;-76
2021/11/18 08:18:39;;;;;;;8.93;4.70;;;;;;;7.39;100.00;101714.34;5010886;28;20185;-78
2021/11/18 08:21:05;;;;;;;7.17;5.67;;;;;;;7.38;100.00;101710.78;5010881;28;20173;-74
2021/11/18 08:23:32;;;;;;;9.23;7.10;;;;;;;7.37;100.00;101705.59;5010857;28;20187;-72
2021/11/18 08:26:03;;;;;;;6.77;5.97;;;;;;;7.35;100.00;101705.03;5010795;28;20172;-73
2021/11/18 08:28:28;;;;;;;17.03;8.17;;;;;;;7.34;100.00;101703.41;5010763;28;20258;-72
2021/11/18 08:30:55;;;;;;;11.57;6.77;;;;;;;7.34;100.00;101701.50;5010840;28;20563;-74
2021/11/18 08:33:21;;;;;;;15.03;5.83;;;;;;;7.33;100.00;101699.84;5010669;28;20571;-72
2021/11/18 08:35:47;;;;;;;6.97;5.33;;;;;;;7.31;100.00;101696.59;5010652;28;20517;-74
2021/11/18 08:38:15;;;;;;;16.23;5.73;;;;;;;7.33;100.00;101693.59;5011698;28;20271;-73
2021/11/18 08:40:55;;;;;;;9.70;5.00;;;;;;;7.32;100.00;101692.78;5024074;28;20210;-75
2021/11/18 08:43:23;;;;;;;5.90;5.30;;;;;;;7.33;100.00;101694.41;5034051;28;20316;-78
2021/11/18 08:45:50;;;;;;;10.53;5.87;;;;;;;7.34;100.00;101689.81;5034163;28;20598;-70
2021/11/18 08:48:16;;;;;;;7.00;6.40;;;;;;;7.35;100.00;101702.31;5034139;28;20183;-75
2021/11/18 08:50:44;;;;;;;4.90;4.57;;;;;;;7.40;100.00;101705.09;5034179;28;20172;-74
2021/11/18 08:53:11;;;;;;;3.00;2.80;;;;;;;7.44;100.00;101712.47;5034038;28;20187;-78
2021/11/18 08:55:39;;;;;;;5.77;4.47;;;;;;;7.52;100.00;101713.88;5033982;28;20168;-70
2021/11/18 08:58:07;;;;;;;13.70;6.13;;;;;;;7.59;100.00;101725.38;5033955;28;20175;-71
2021/11/18 09:00:37;;;;;;;7.90;7.17;;;;;;;7.66;100.00;101715.06;5034098;28;20179;-76
2021/11/18 09:03:03;;;;;;;5.17;4.67;;;;;;;7.71;100.00;101701.53;5034028;28;20192;-75
2021/11/18 09:05:30;;;;;;;6.63;3.83;;;;;;;7.78;100.00;101698.56;5033517;28;20215;-76
2021/11/18 09:07:56;;;;;;;5.33;3.50;;;;;;;7.81;100.00;101697.22;5033667;28;20196;-78
2021/11/18 09:10:22;;;;;;;3.53;3.23;;;;;;;7.86;100.00;101697.28;5011945;28;20189;-79
2021/11/18 09:12:48;;;;;;;12.93;6.23;;;;;;;7.92;100.00;101705.19;5013187;28;20683;-77
2021/11/18 09:15:16;;;;;;;5.33;3.63;;;;;;;7.95;100.00;101712.00;5012862;28;20177;-80
2021/11/18 09:17:41;;;;;;;16.33;3.13;;;;;;;8.00;100.00;101688.38;5013297;28;20606;-80
2021/11/18 09:20:11;;;;;;;12.10;6.90;;;;;;;7.99;100.00;101722.13;5013414;28;20180;-79
2021/11/18 09:22:38;;;;;;;4.53;4.10;;;;;;;8.02;100.00;101720.78;5013567;28;20172;-80
2021/11/18 09:25:09;;;;;;;3.70;3.47;;;;;;;8.01;100.00;101706.34;5012078;28;20180;-79
2021/11/18 09:27:42;;;;;;;10.00;7.87;;;;;;;8.03;100.00;101716.97;5012283;28;20632;-84
2021/11/18 09:30:12;;;;;;;7.93;3.70;;;;;;;8.02;100.00;101720.78;5012915;28;20196;-76
2021/11/18 09:32:38;;;;;;;7.13;2.33;;;;;;;8.05;100.00;101722.97;5013159;28;20173;-81
2021/11/18 09:35:07;;;;;;;3.80;3.50;;;;;;;8.08;100.00;101725.16;5012908;28;20535;-79
2021/11/18 09:37:33;;;;;;;17.50;5.63;;;;;;;8.08;100.00;101727.88;5013482;28;20183;-78
2021/11/18 09:39:59;;;;;;;8.17;6.10;;;;;;;8.10;100.00;101739.34;5013055;28;20606;-76
2021/11/18 09:42:35;;;;;;;18.20;3.07;;;;;;;8.11;100.00;101757.31;5013113;28;20181;-68
2021/11/18 09:45:21;;;;;;;3.87;3.50;;;;;;;8.16;100.00;101742.91;5012232;28;20247;-70
2021/11/18 09:48:29;;;;;;;12.83;9.13;;;;;;;8.18;100.00;101748.91;5011909;28;20236;-70
2021/11/18 09:51:09;;;;;;;1.43;1.43;;;;;;;8.22;100.00;101752.72;5006409;28;20179;-70
2021/11/18 09:54:20;;;;;;;2.63;2.53;;;;;;;8.23;100.00;101743.47;5011937;28;20185;-70
2021/11/18 09:57:13;;;;;;;3.90;3.63;;;;;;;8.24;100.00;101745.13;4990543;28;20185;-70
2021/11/18 09:59:53;;;;;;;5.90;5.47;;;;;;;8.20;100.00;101739.38;5012758;28;20216;-70
2021/11/18 10:02:26;;;;;;;3.97;3.57;;;;;;;8.21;100.00;101741.03;5013049;28;20165;-69
2021/11/18 10:04:51;;;;;;;12.37;4.30;;;;;;;8.24;100.00;101737.78;5012297;28;20180;-71
2021/11/18 10:07:38;;;;;;;10.63;6.23;;;;;;;8.26;100.00;101727.47;5012576;28;20242;-70
2021/11/18 10:10:14;;;;;;;7.07;5.97;;;;;;;8.25;100.00;101727.72;5012591;28;20192;-69
2021/11/18 10:12:55;;;;;;;4.57;3.60;;;;;;;8.29;100.00;101720.66;5012451;28;20211;-70
2021/11/18 10:15:38;;;;;;;12.53;7.57;;;;;;;8.32;100.00;101741.91;5012369;28;20181;-70
2021/11/18 10:18:20;;;;;;;6.83;5.20;;;;;;;8.34;100.00;101740.59;5012458;28;20176;-71
2021/11/18 10:20:49;;;;;;;15.20;6.10;;;;;;;8.33;100.00;101740.81;5012366;28;20624;-74
2021/11/18 10:23:20;;;;;;;9.30;5.20;;;;;;;8.35;100.00;101744.94;5012273;28;20636;-71
2021/11/18 10:28:55;;;;;;;25.50;3.07;;;;;;;8.39;100.00;101731.66;5005154;28;20216;-70
2021/11/18 10:31:44;;;;;;;7.53;4.70;;;;;;;8.39;100.00;101728.06;5009654;28;20180;-71
2021/11/18 10:34:14;;;;;;;6.90;4.90;;;;;;;8.40;100.00;101746.09;5011745;28;20580;-70
2021/11/18 10:36:45;;;;;;;4.57;3.80;;;;;;;8.45;100.00;101727.03;5011630;28;20659;-72
2021/11/18 10:39:45;;;;;;;4.80;4.33;;;;;;;8.48;100.00;101723.78;5010855;28;20184;-70
2021/11/18 10:42:19;;;;;;;17.43;6.57;;;;;;;8.51;100.00;101724.06;5004910;28;20655;-72
2021/11/18 10:44:53;;;;;;;9.13;3.90;;;;;;;8.55;100.00;101713.47;5012030;28;20199;-70
2021/11/18 10:47:29;;;;;;;4.63;3.23;;;;;;;8.58;100.00;101721.09;5006994;28;20211;-70
2021/11/18 10:50:08;;;;;;;13.53;5.80;;;;;;;8.60;100.00;101706.13;5011869;28;20206;-69
2021/11/18 10:52:41;;;;;;;4.17;3.47;;;;;;;8.67;100.00;101727.66;5011624;28;20640;-71
2021/11/18 10:55:12;;;;;;;7.47;3.97;;;;;;;8.70;100.00;101713.53;5011345;28;20674;-69
2021/11/18 10:58:10;;;;;;;13.63;7.10;;;;;;;8.68;100.00;101729.31;5011692;28;20192;-71
2021/11/18 11:00:39;;;;;;;13.97;4.77;;;;;;;8.61;100.00;101715.09;5010481;28;20543;-72
2021/11/18 11:03:33;;;;;;;6.87;5.43;;;;;;;8.62;100.00;101723.00;5011648;28;20173;-73
2021/11/18 11:06:14;;;;;;;4.87;3.30;;;;;;;8.61;100.00;101715.09;5011301;28;20214;-71
2021/11/18 11:08:43;;;;;;;10.33;5.90;;;;;;;8.62;100.00;101693.03;5011375;28;20262;-71
2021/11/18 11:11:21;;;;;;;2.57;2.37;;;;;;;8.64;100.00;101709.13;5011431;28;20184;-70
2021/11/18 11:14:17;;;;;;;6.67;6.07;;;;;;;8.71;100.00;101698.00;5011099;28;20519;-70
2021/11/18 11:16:56;;;;;;;7.23;5.23;;;;;;;8.83;100.00;101690.41;5011336;28;20644;-70
2021/11/18 11:19:37;;;;;;;11.83;6.90;;;;;;;8.91;100.00;101693.41;5011363;28;20177;-72
2021/11/18 11:22:18;;;;;;;12.83;5.10;;;;;;;8.99;100.00;101693.97;5011254;28;20165;-70
2021/11/18 11:24:46;;;;;;;4.53;4.10;;;;;;;9.09;100.00;101689.31;5010942;28;20527;-70
2021/11/18 11:27:30;;;;;;;2.33;2.23;;;;;;;9.11;100.00;101697.22;5011141;28;20573;-69
2021/11/18 11:30:40;;;;;;;4.77;3.93;;;;;;;9.13;100.00;101693.19;5011569;28;20184;-69
2021/11/18 11:33:30;;;;;;;5.37;4.87;;;;;;;9.09;100.00;101694.78;5011270;28;20180;-69
2021/11/18 11:36:11;;;;;;;5.77;5.27;;;;;;;9.07;100.00;101691.50;5010891;28;20314;-68
2021/11/18 11:38:55;;;;;;;4.40;4.03;;;;;;;9.13;100.00;101692.34;5010922;28;20179;-70